ADDS TAF Board (Experimental) INFO Settings
IDs: Format: Expanded Condensed

KMIA - Miami Intl, FL, US

Issued at 0530 UTC 27 May 2016
Updated at: 0624 UTC 27 May 2016
Time0553Z 27/07Z 27/08Z 27/09Z 27/10Z 27/11Z 27/12Z 27/13Z 27/14Z 27/15Z 27/16Z 27/17Z 27/18Z 27/19Z
Type OBS PRVL PRVL PRVL PRVL PRVL PRVL PRVL PRVL PRVL PRVL PRVL PRVL PRVL
VIS 10 >6 >6 >6 >6 >6 >6 >6 >6 >6 >6 >6 >6 >6
CIG -- -- -- -- -- -- -- -- -- -- -- -- -- --
Cover SCT SCT SCT SCT SCT SCT SCT SCT SCT SCT SCT SCT SCT SCT
FltCat VFR VFR VFR VFR VFR VFR VFR VFR VFR VFR VFR VFR VFR VFR
WX -- VCSH VCSH VCSH VCSH VCSH VCSH VCSH VCSH VCSH VCSH VCSH VCSH VCSH
WDir 60 40 40 40 40 40 40 40 80 80 80 80 80 80
WSpd 5 5 5 5 5 5 5 5 10 10 10 10 10 10
WGst -- -- -- -- -- -- -- -- -- -- -- -- -- --
R08/26
XWnd 2 4 4 4 4 4 4 4 1 1 1 1 1 1
HWnd 4 3 3 3 3 3 3 3 10 10 10 10 10 10
R09/27
XWnd 2 4 4 4 4 4 4 4 1 1 1 1 1 1
HWnd 4 3 3 3 3 3 3 3 10 10 10 10 10 10
R12/30
XWnd 4 5 5 5 5 5 5 5 6 6 6 6 6 6
HWnd 3 1 1 1 1 1 1 1 8 8 8 8 8 8

NOTE: TEMPO conditions in [brackets]. Keep in mind TEMPO conditions might be better (lower impact) than prevailing conditions.

Raw TAF
KMIA 270530Z 2706/2806 04005KT P6SM VCSH FEW030 SCT050
  FM271400 08010KT P6SM VCSH FEW030 SCT050
  FM280000 VRB03KT P6SM FEW030 SCT250


Raw METAR
KMIA 270553Z 06005KT 10SM SCT034 SCT090 26/19 A3000 RMK AO2 SLP160 60009 T02560194 10267 20233 58005
KMIA 270453Z 02004KT 10SM FEW030 SCT040 25/20 A3001 RMK AO2 SLP163 T02500200 402940228
KMIA 270353Z 04005KT 10SM SCT040 24/21 A3002 RMK AO2 SLP164 T02440206

METAR Board
Radar Display
Forecast Discussion

TAF Board Legend

Potential Impact
Threat None Slight Moderate High
Visibility (sm) ≥5.1 5.1>X≥3 3>X≥1 <1
Ceiling (100 ft) ≥30.1 30.1>X≥10 10>X≥5 <5
Wind Speed (kt) <10 10≤X<20 20≤X<30 ≥30
Wind Gust (kt) <15 15≤X<25 25≤X<35 ≥35
Weather No Wx Reported VCTS,-TS,-FZRA,SN TS,FZRA +TS,+FZRA,+SN